1M4

Posey Field Airport

Haleyville, Alabama, USA
METAR K1M4 172256Z AUTO 00000KT 10SM CLR 12/08 A3021 RMK AO2 SLPNO T01220083
Observed Flight Rules
Nov-17 @ 22:56 UTC (40 minutes ago) Visual Flight Rules
Visibility Clouds
10 miles
  • Clear skies
Temperatures Readings
Current 12°C / 54°F
Dewpoint 8°C / 46°F
Humidity 77%
Altimeter 30.21" Hg
Pressure 1023 hPa
Elevation 284
METAR K1M4 172256Z AUTO 00000KT 10SM CLR 12/08 A3021 RMK AO2 SLPNO T01220083
Observed Flight Rules
Nov-17 @ 22:56 UTC
(40 minutes ago)
VFR
Clouds
  • Clear skies
Temperature Dewpoint
12°C / 54°F 8°C / 46°F
Humidity Altimeter Pressure
77% 30.21" Hg 1023 hPa